sensor_id;sensor_type;location;lat;lon;timestamp;P1;durP1;ratioP1;P2;durP2;ratioP2
6251;SDS011;3159;52.414;9.784;2024-01-11T00:01:39;22.50;;;13.80;;
6251;SDS011;3159;52.414;9.784;2024-01-11T00:04:12;23.47;;;13.90;;
6251;SDS011;3159;52.414;9.784;2024-01-11T00:06:40;28.27;;;14.63;;
6251;SDS011;3159;52.414;9.784;2024-01-11T00:09:07;25.67;;;14.53;;
6251;SDS011;3159;52.414;9.784;2024-01-11T00:11:34;29.70;;;14.80;;
6251;SDS011;3159;52.414;9.784;2024-01-11T00:14:01;22.40;;;14.10;;
6251;SDS011;3159;52.414;9.784;2024-01-11T00:16:28;27.57;;;14.20;;
6251;SDS011;3159;52.414;9.784;2024-01-11T00:18:55;26.77;;;13.87;;
6251;SDS011;3159;52.414;9.784;2024-01-11T00:21:23;24.17;;;13.90;;
6251;SDS011;3159;52.414;9.784;2024-01-11T00:23:49;26.40;;;14.07;;
6251;SDS011;3159;52.414;9.784;2024-01-11T00:26:16;21.07;;;13.63;;
6251;SDS011;3159;52.414;9.784;2024-01-11T00:28:43;22.30;;;14.10;;
6251;SDS011;3159;52.414;9.784;2024-01-11T00:31:10;22.60;;;13.47;;
6251;SDS011;3159;52.414;9.784;2024-01-11T00:33:36;22.73;;;13.03;;
6251;SDS011;3159;52.414;9.784;2024-01-11T00:36:03;24.47;;;14.70;;
6251;SDS011;3159;52.414;9.784;2024-01-11T00:38:31;23.43;;;14.03;;
6251;SDS011;3159;52.414;9.784;2024-01-11T00:40:58;25.83;;;13.93;;
6251;SDS011;3159;52.414;9.784;2024-01-11T00:43:25;21.37;;;13.07;;
6251;SDS011;3159;52.414;9.784;2024-01-11T00:45:52;25.43;;;14.47;;
6251;SDS011;3159;52.414;9.784;2024-01-11T00:48:18;24.73;;;13.83;;
6251;SDS011;3159;52.414;9.784;2024-01-11T00:50:45;23.57;;;13.60;;
6251;SDS011;3159;52.414;9.784;2024-01-11T00:53:12;20.27;;;13.30;;
6251;SDS011;3159;52.414;9.784;2024-01-11T00:55:41;22.63;;;13.77;;
6251;SDS011;3159;52.414;9.784;2024-01-11T00:58:08;24.10;;;12.63;;
6251;SDS011;3159;52.414;9.784;2024-01-11T01:00:34;22.33;;;13.13;;
6251;SDS011;3159;52.414;9.784;2024-01-11T01:03:01;21.27;;;12.43;;
6251;SDS011;3159;52.414;9.784;2024-01-11T01:05:28;20.47;;;12.43;;
6251;SDS011;3159;52.414;9.784;2024-01-11T01:07:55;22.00;;;11.63;;
6251;SDS011;3159;52.414;9.784;2024-01-11T01:10:22;23.83;;;11.77;;
6251;SDS011;3159;52.414;9.784;2024-01-11T01:12:50;20.57;;;11.63;;
6251;SDS011;3159;52.414;9.784;2024-01-11T01:15:17;20.83;;;12.33;;
6251;SDS011;3159;52.414;9.784;2024-01-11T01:17:44;18.97;;;11.33;;
6251;SDS011;3159;52.414;9.784;2024-01-11T01:20:11;21.50;;;11.43;;
6251;SDS011;3159;52.414;9.784;2024-01-11T01:22:37;21.97;;;12.00;;
6251;SDS011;3159;52.414;9.784;2024-01-11T01:25:04;22.20;;;11.27;;
6251;SDS011;3159;52.414;9.784;2024-01-11T01:27:32;22.60;;;11.43;;
6251;SDS011;3159;52.414;9.784;2024-01-11T01:30:00;21.50;;;11.23;;
6251;SDS011;3159;52.414;9.784;2024-01-11T01:32:27;21.50;;;11.07;;
6251;SDS011;3159;52.414;9.784;2024-01-11T01:34:54;24.23;;;11.83;;
6251;SDS011;3159;52.414;9.784;2024-01-11T01:37:20;22.70;;;11.87;;
6251;SDS011;3159;52.414;9.784;2024-01-11T01:39:47;21.70;;;11.97;;
6251;SDS011;3159;52.414;9.784;2024-01-11T01:42:14;24.43;;;10.97;;
6251;SDS011;3159;52.414;9.784;2024-01-11T01:44:41;19.03;;;12.00;;
6251;SDS011;3159;52.414;9.784;2024-01-11T01:47:09;17.50;;;11.57;;
6251;SDS011;3159;52.414;9.784;2024-01-11T01:49:37;20.90;;;11.57;;
6251;SDS011;3159;52.414;9.784;2024-01-11T01:52:05;19.33;;;11.47;;
6251;SDS011;3159;52.414;9.784;2024-01-11T01:54:33;24.07;;;11.63;;
6251;SDS011;3159;52.414;9.784;2024-01-11T01:57:00;18.63;;;10.77;;
6251;SDS011;3159;52.414;9.784;2024-01-11T01:59:29;21.10;;;11.10;;
6251;SDS011;3159;52.414;9.784;2024-01-11T02:01:57;19.90;;;11.00;;
6251;SDS011;3159;52.414;9.784;2024-01-11T02:04:25;21.07;;;10.93;;
6251;SDS011;3159;52.414;9.784;2024-01-11T02:06:53;22.47;;;11.57;;
6251;SDS011;3159;52.414;9.784;2024-01-11T02:09:20;20.87;;;11.30;;
6251;SDS011;3159;52.414;9.784;2024-01-11T02:11:48;19.73;;;10.20;;
6251;SDS011;3159;52.414;9.784;2024-01-11T02:14:18;21.20;;;11.33;;
6251;SDS011;3159;52.414;9.784;2024-01-11T02:16:45;20.37;;;10.83;;
6251;SDS011;3159;52.414;9.784;2024-01-11T02:19:12;20.20;;;11.33;;
6251;SDS011;3159;52.414;9.784;2024-01-11T02:21:41;18.70;;;10.07;;
6251;SDS011;3159;52.414;9.784;2024-01-11T02:24:10;21.43;;;10.90;;
6251;SDS011;3159;52.414;9.784;2024-01-11T02:26:37;19.23;;;12.03;;
6251;SDS011;3159;52.414;9.784;2024-01-11T02:29:24;16.97;;;11.10;;
6251;SDS011;3159;52.414;9.784;2024-01-11T02:31:51;19.37;;;11.03;;
6251;SDS011;3159;52.414;9.784;2024-01-11T02:34:18;17.60;;;10.53;;
6251;SDS011;3159;52.414;9.784;2024-01-11T02:36:45;17.17;;;10.37;;
6251;SDS011;3159;52.414;9.784;2024-01-11T02:39:14;18.60;;;11.30;;
6251;SDS011;3159;52.414;9.784;2024-01-11T02:41:44;20.33;;;11.17;;
6251;SDS011;3159;52.414;9.784;2024-01-11T02:44:11;21.90;;;11.57;;
6251;SDS011;3159;52.414;9.784;2024-01-11T02:46:38;25.47;;;11.73;;
6251;SDS011;3159;52.414;9.784;2024-01-11T02:49:05;19.70;;;11.40;;
6251;SDS011;3159;52.414;9.784;2024-01-11T02:51:32;18.87;;;11.60;;
6251;SDS011;3159;52.414;9.784;2024-01-11T02:53:58;19.23;;;10.77;;
6251;SDS011;3159;52.414;9.784;2024-01-11T02:56:27;23.70;;;11.53;;
6251;SDS011;3159;52.414;9.784;2024-01-11T02:58:54;22.70;;;12.47;;
6251;SDS011;3159;52.414;9.784;2024-01-11T03:01:20;20.73;;;12.60;;
6251;SDS011;3159;52.414;9.784;2024-01-11T03:03:47;15.50;;;11.33;;
6251;SDS011;3159;52.414;9.784;2024-01-11T03:06:14;19.90;;;10.87;;
6251;SDS011;3159;52.414;9.784;2024-01-11T03:08:46;22.37;;;11.57;;
6251;SDS011;3159;52.414;9.784;2024-01-11T03:11:13;20.07;;;11.00;;
6251;SDS011;3159;52.414;9.784;2024-01-11T03:13:41;21.63;;;12.03;;
6251;SDS011;3159;52.414;9.784;2024-01-11T03:16:08;19.73;;;9.97;;
6251;SDS011;3159;52.414;9.784;2024-01-11T03:18:35;23.03;;;10.80;;
6251;SDS011;3159;52.414;9.784;2024-01-11T03:21:02;19.80;;;11.33;;
6251;SDS011;3159;52.414;9.784;2024-01-11T03:23:29;17.60;;;11.00;;
6251;SDS011;3159;52.414;9.784;2024-01-11T03:25:56;21.53;;;11.50;;
6251;SDS011;3159;52.414;9.784;2024-01-11T03:28:22;19.97;;;11.00;;
6251;SDS011;3159;52.414;9.784;2024-01-11T03:30:51;19.30;;;11.00;;
6251;SDS011;3159;52.414;9.784;2024-01-11T03:33:17;20.63;;;10.73;;
6251;SDS011;3159;52.414;9.784;2024-01-11T03:35:45;18.73;;;10.60;;
6251;SDS011;3159;52.414;9.784;2024-01-11T03:38:11;18.67;;;11.00;;
6251;SDS011;3159;52.414;9.784;2024-01-11T03:40:38;17.87;;;11.27;;
6251;SDS011;3159;52.414;9.784;2024-01-11T03:43:05;22.53;;;11.03;;
6251;SDS011;3159;52.414;9.784;2024-01-11T03:45:32;22.67;;;11.13;;
6251;SDS011;3159;52.414;9.784;2024-01-11T03:48:00;18.67;;;11.43;;
6251;SDS011;3159;52.414;9.784;2024-01-11T03:50:27;16.70;;;9.87;;
6251;SDS011;3159;52.414;9.784;2024-01-11T03:52:54;15.70;;;9.70;;
6251;SDS011;3159;52.414;9.784;2024-01-11T03:55:21;19.13;;;11.07;;
6251;SDS011;3159;52.414;9.784;2024-01-11T03:57:47;18.07;;;10.93;;
6251;SDS011;3159;52.414;9.784;2024-01-11T04:00:14;18.50;;;10.87;;
6251;SDS011;3159;52.414;9.784;2024-01-11T04:02:42;14.47;;;10.03;;
6251;SDS011;3159;52.414;9.784;2024-01-11T04:05:10;15.67;;;10.10;;
6251;SDS011;3159;52.414;9.784;2024-01-11T04:07:37;17.00;;;10.03;;
6251;SDS011;3159;52.414;9.784;2024-01-11T04:10:04;19.97;;;10.53;;
6251;SDS011;3159;52.414;9.784;2024-01-11T04:12:31;17.53;;;9.63;;
6251;SDS011;3159;52.414;9.784;2024-01-11T04:14:58;18.17;;;10.50;;
6251;SDS011;3159;52.414;9.784;2024-01-11T04:17:25;17.57;;;10.10;;
6251;SDS011;3159;52.414;9.784;2024-01-11T04:19:51;15.63;;;10.10;;
6251;SDS011;3159;52.414;9.784;2024-01-11T04:22:20;16.90;;;9.83;;
6251;SDS011;3159;52.414;9.784;2024-01-11T04:24:46;18.93;;;10.40;;
6251;SDS011;3159;52.414;9.784;2024-01-11T04:27:13;19.23;;;10.50;;
6251;SDS011;3159;52.414;9.784;2024-01-11T04:29:40;20.83;;;9.40;;
6251;SDS011;3159;52.414;9.784;2024-01-11T04:32:07;16.53;;;10.07;;
6251;SDS011;3159;52.414;9.784;2024-01-11T04:34:34;14.53;;;9.80;;
6251;SDS011;3159;52.414;9.784;2024-01-11T04:37:00;19.77;;;9.97;;
6251;SDS011;3159;52.414;9.784;2024-01-11T04:39:28;22.53;;;10.37;;
6251;SDS011;3159;52.414;9.784;2024-01-11T04:41:55;15.40;;;9.43;;
6251;SDS011;3159;52.414;9.784;2024-01-11T04:44:22;19.57;;;9.43;;
6251;SDS011;3159;52.414;9.784;2024-01-11T04:46:49;19.77;;;10.57;;
6251;SDS011;3159;52.414;9.784;2024-01-11T04:49:16;16.27;;;10.43;;
6251;SDS011;3159;52.414;9.784;2024-01-11T04:51:43;21.80;;;11.13;;
6251;SDS011;3159;52.414;9.784;2024-01-11T04:54:10;16.37;;;9.90;;
6251;SDS011;3159;52.414;9.784;2024-01-11T04:56:38;18.53;;;10.07;;
6251;SDS011;3159;52.414;9.784;2024-01-11T04:59:05;19.57;;;11.17;;
6251;SDS011;3159;52.414;9.784;2024-01-11T05:01:31;16.40;;;10.00;;
6251;SDS011;3159;52.414;9.784;2024-01-11T05:03:58;15.33;;;10.33;;
6251;SDS011;3159;52.414;9.784;2024-01-11T05:06:25;16.40;;;10.20;;
6251;SDS011;3159;52.414;9.784;2024-01-11T05:08:52;15.60;;;8.93;;
6251;SDS011;3159;52.414;9.784;2024-01-11T05:11:19;15.63;;;9.67;;
6251;SDS011;3159;52.414;9.784;2024-01-11T05:13:47;17.27;;;9.80;;
6251;SDS011;3159;52.414;9.784;2024-01-11T05:16:21;17.30;;;9.60;;
6251;SDS011;3159;52.414;9.784;2024-01-11T05:18:49;21.90;;;10.67;;
6251;SDS011;3159;52.414;9.784;2024-01-11T05:21:16;16.33;;;10.00;;
6251;SDS011;3159;52.414;9.784;2024-01-11T05:23:43;20.57;;;11.27;;
6251;SDS011;3159;52.414;9.784;2024-01-11T05:26:10;16.33;;;10.20;;
6251;SDS011;3159;52.414;9.784;2024-01-11T05:28:37;17.20;;;9.73;;
6251;SDS011;3159;52.414;9.784;2024-01-11T05:31:06;15.90;;;9.33;;
6251;SDS011;3159;52.414;9.784;2024-01-11T05:33:35;18.50;;;10.10;;
6251;SDS011;3159;52.414;9.784;2024-01-11T05:36:02;15.63;;;8.57;;
6251;SDS011;3159;52.414;9.784;2024-01-11T05:38:29;15.00;;;9.13;;
6251;SDS011;3159;52.414;9.784;2024-01-11T05:40:56;18.13;;;10.80;;
6251;SDS011;3159;52.414;9.784;2024-01-11T05:43:22;15.30;;;9.83;;
6251;SDS011;3159;52.414;9.784;2024-01-11T05:45:49;20.70;;;11.33;;
6251;SDS011;3159;52.414;9.784;2024-01-11T05:48:18;20.27;;;11.57;;
6251;SDS011;3159;52.414;9.784;2024-01-11T05:50:45;20.87;;;11.83;;
6251;SDS011;3159;52.414;9.784;2024-01-11T05:53:12;18.83;;;11.57;;
6251;SDS011;3159;52.414;9.784;2024-01-11T05:55:39;21.43;;;11.00;;
6251;SDS011;3159;52.414;9.784;2024-01-11T05:58:06;19.80;;;11.63;;
6251;SDS011;3159;52.414;9.784;2024-01-11T06:00:32;18.03;;;11.03;;
6251;SDS011;3159;52.414;9.784;2024-01-11T06:02:59;20.87;;;11.30;;
6251;SDS011;3159;52.414;9.784;2024-01-11T06:05:28;21.47;;;10.47;;
6251;SDS011;3159;52.414;9.784;2024-01-11T06:07:54;20.03;;;11.37;;
6251;SDS011;3159;52.414;9.784;2024-01-11T06:10:21;20.67;;;11.33;;
6251;SDS011;3159;52.414;9.784;2024-01-11T06:12:48;22.17;;;11.37;;
6251;SDS011;3159;52.414;9.784;2024-01-11T06:15:15;21.53;;;11.43;;
6251;SDS011;3159;52.414;9.784;2024-01-11T06:17:42;19.40;;;11.07;;
6251;SDS011;3159;52.414;9.784;2024-01-11T06:20:09;20.20;;;11.77;;
6251;SDS011;3159;52.414;9.784;2024-01-11T06:22:38;23.13;;;11.70;;
6251;SDS011;3159;52.414;9.784;2024-01-11T06:25:05;25.87;;;12.43;;
6251;SDS011;3159;52.414;9.784;2024-01-11T06:27:32;20.13;;;11.07;;
6251;SDS011;3159;52.414;9.784;2024-01-11T06:29:59;26.53;;;13.33;;
6251;SDS011;3159;52.414;9.784;2024-01-11T06:32:26;21.90;;;11.47;;
6251;SDS011;3159;52.414;9.784;2024-01-11T06:34:53;21.13;;;12.33;;
6251;SDS011;3159;52.414;9.784;2024-01-11T06:37:20;22.23;;;11.80;;
6251;SDS011;3159;52.414;9.784;2024-01-11T06:39:49;20.53;;;12.13;;
6251;SDS011;3159;52.414;9.784;2024-01-11T06:42:16;19.83;;;11.53;;
6251;SDS011;3159;52.414;9.784;2024-01-11T06:44:43;23.07;;;12.73;;
6251;SDS011;3159;52.414;9.784;2024-01-11T06:47:10;23.90;;;11.93;;
6251;SDS011;3159;52.414;9.784;2024-01-11T06:49:37;22.13;;;11.50;;
6251;SDS011;3159;52.414;9.784;2024-01-11T06:52:05;27.40;;;12.93;;
6251;SDS011;3159;52.414;9.784;2024-01-11T06:54:32;21.40;;;12.80;;
6251;SDS011;3159;52.414;9.784;2024-01-11T06:57:00;28.08;;;17.10;;
6251;SDS011;3159;52.414;9.784;2024-01-11T06:59:27;29.93;;;14.50;;
6251;SDS011;3159;52.414;9.784;2024-01-11T07:01:53;25.13;;;14.20;;
6251;SDS011;3159;52.414;9.784;2024-01-11T07:04:20;25.13;;;13.90;;
6251;SDS011;3159;52.414;9.784;2024-01-11T07:06:47;25.83;;;13.97;;
6251;SDS011;3159;52.414;9.784;2024-01-11T07:09:14;21.20;;;12.37;;
6251;SDS011;3159;52.414;9.784;2024-01-11T07:11:42;21.00;;;12.67;;
6251;SDS011;3159;52.414;9.784;2024-01-11T07:14:11;25.77;;;12.63;;
6251;SDS011;3159;52.414;9.784;2024-01-11T07:16:37;26.40;;;13.43;;
6251;SDS011;3159;52.414;9.784;2024-01-11T07:19:04;22.73;;;12.70;;
6251;SDS011;3159;52.414;9.784;2024-01-11T07:21:31;24.93;;;13.20;;
6251;SDS011;3159;52.414;9.784;2024-01-11T07:23:58;25.40;;;12.87;;
6251;SDS011;3159;52.414;9.784;2024-01-11T07:26:25;21.70;;;11.87;;
6251;SDS011;3159;52.414;9.784;2024-01-11T07:28:52;25.00;;;12.23;;
6251;SDS011;3159;52.414;9.784;2024-01-11T07:31:22;22.30;;;12.10;;
6251;SDS011;3159;52.414;9.784;2024-01-11T07:33:48;18.73;;;11.53;;
6251;SDS011;3159;52.414;9.784;2024-01-11T07:36:15;22.87;;;11.80;;
6251;SDS011;3159;52.414;9.784;2024-01-11T07:38:42;23.33;;;11.63;;
6251;SDS011;3159;52.414;9.784;2024-01-11T07:41:09;20.87;;;12.30;;
6251;SDS011;3159;52.414;9.784;2024-01-11T07:43:36;22.33;;;12.67;;
6251;SDS011;3159;52.414;9.784;2024-01-11T07:46:03;27.60;;;13.47;;
6251;SDS011;3159;52.414;9.784;2024-01-11T07:48:32;23.27;;;12.30;;
6251;SDS011;3159;52.414;9.784;2024-01-11T07:50:58;21.43;;;12.30;;
6251;SDS011;3159;52.414;9.784;2024-01-11T07:53:25;27.27;;;12.50;;
6251;SDS011;3159;52.414;9.784;2024-01-11T07:55:52;20.10;;;11.93;;
6251;SDS011;3159;52.414;9.784;2024-01-11T07:58:19;23.80;;;11.97;;
6251;SDS011;3159;52.414;9.784;2024-01-11T08:00:47;27.47;;;14.70;;
6251;SDS011;3159;52.414;9.784;2024-01-11T08:03:13;26.70;;;12.70;;
6251;SDS011;3159;52.414;9.784;2024-01-11T08:05:42;27.27;;;13.37;;
6251;SDS011;3159;52.414;9.784;2024-01-11T08:08:09;25.07;;;12.87;;
6251;SDS011;3159;52.414;9.784;2024-01-11T08:10:36;23.03;;;12.07;;
6251;SDS011;3159;52.414;9.784;2024-01-11T08:13:03;22.27;;;12.40;;
6251;SDS011;3159;52.414;9.784;2024-01-11T08:15:30;30.13;;;13.40;;
6251;SDS011;3159;52.414;9.784;2024-01-11T08:17:56;29.87;;;14.73;;
6251;SDS011;3159;52.414;9.784;2024-01-11T08:20:25;26.87;;;13.97;;
6251;SDS011;3159;52.414;9.784;2024-01-11T08:22:54;25.53;;;13.23;;
6251;SDS011;3159;52.414;9.784;2024-01-11T08:25:21;25.47;;;13.23;;
6251;SDS011;3159;52.414;9.784;2024-01-11T08:27:48;27.83;;;14.17;;
6251;SDS011;3159;52.414;9.784;2024-01-11T08:30:15;26.73;;;14.10;;
6251;SDS011;3159;52.414;9.784;2024-01-11T08:32:42;27.30;;;14.23;;
6251;SDS011;3159;52.414;9.784;2024-01-11T08:35:09;22.83;;;13.90;;
6251;SDS011;3159;52.414;9.784;2024-01-11T08:37:37;28.43;;;15.03;;
6251;SDS011;3159;52.414;9.784;2024-01-11T08:40:06;24.63;;;14.30;;
6251;SDS011;3159;52.414;9.784;2024-01-11T08:42:34;22.77;;;13.77;;
6251;SDS011;3159;52.414;9.784;2024-01-11T08:45:01;27.20;;;14.13;;
6251;SDS011;3159;52.414;9.784;2024-01-11T08:47:32;27.40;;;14.20;;
6251;SDS011;3159;52.414;9.784;2024-01-11T08:49:59;23.73;;;14.50;;
6251;SDS011;3159;52.414;9.784;2024-01-11T08:52:26;26.97;;;14.33;;
6251;SDS011;3159;52.414;9.784;2024-01-11T08:54:53;26.63;;;14.93;;
6251;SDS011;3159;52.414;9.784;2024-01-11T08:57:21;26.60;;;14.57;;
6251;SDS011;3159;52.414;9.784;2024-01-11T08:59:48;24.67;;;14.47;;
6251;SDS011;3159;52.414;9.784;2024-01-11T09:02:14;26.77;;;15.10;;
6251;SDS011;3159;52.414;9.784;2024-01-11T09:04:41;25.73;;;15.10;;
6251;SDS011;3159;52.414;9.784;2024-01-11T09:07:08;29.50;;;15.03;;
6251;SDS011;3159;52.414;9.784;2024-01-11T09:09:35;22.50;;;13.67;;
6251;SDS011;3159;52.414;9.784;2024-01-11T09:12:02;27.83;;;15.20;;
6251;SDS011;3159;52.414;9.784;2024-01-11T09:14:31;22.73;;;13.87;;
6251;SDS011;3159;52.414;9.784;2024-01-11T09:16:57;28.23;;;14.57;;
6251;SDS011;3159;52.414;9.784;2024-01-11T09:19:24;23.73;;;14.27;;
6251;SDS011;3159;52.414;9.784;2024-01-11T09:21:51;25.13;;;14.73;;
6251;SDS011;3159;52.414;9.784;2024-01-11T09:24:18;24.10;;;14.70;;
6251;SDS011;3159;52.414;9.784;2024-01-11T09:26:45;30.97;;;15.13;;
6251;SDS011;3159;52.414;9.784;2024-01-11T09:29:15;26.20;;;15.23;;
6251;SDS011;3159;52.414;9.784;2024-01-11T09:31:43;27.43;;;14.73;;
6251;SDS011;3159;52.414;9.784;2024-01-11T09:34:09;31.13;;;14.73;;
6251;SDS011;3159;52.414;9.784;2024-01-11T09:36:37;26.77;;;13.70;;
6251;SDS011;3159;52.414;9.784;2024-01-11T09:39:04;31.70;;;15.63;;
6251;SDS011;3159;52.414;9.784;2024-01-11T09:41:32;24.20;;;13.97;;
6251;SDS011;3159;52.414;9.784;2024-01-11T09:44:03;24.10;;;14.07;;
6251;SDS011;3159;52.414;9.784;2024-01-11T09:46:31;28.43;;;14.77;;
6251;SDS011;3159;52.414;9.784;2024-01-11T09:48:59;29.70;;;16.17;;
6251;SDS011;3159;52.414;9.784;2024-01-11T09:51:28;36.77;;;16.87;;
6251;SDS011;3159;52.414;9.784;2024-01-11T09:53:56;31.70;;;16.33;;
6251;SDS011;3159;52.414;9.784;2024-01-11T09:56:25;34.40;;;16.70;;
6251;SDS011;3159;52.414;9.784;2024-01-11T09:58:53;28.73;;;16.13;;
6251;SDS011;3159;52.414;9.784;2024-01-11T10:01:20;29.40;;;16.10;;
6251;SDS011;3159;52.414;9.784;2024-01-11T10:03:47;28.43;;;15.77;;
6251;SDS011;3159;52.414;9.784;2024-01-11T10:06:16;29.57;;;15.23;;
6251;SDS011;3159;52.414;9.784;2024-01-11T10:08:44;29.30;;;15.57;;
6251;SDS011;3159;52.414;9.784;2024-01-11T10:11:11;30.53;;;14.57;;
6251;SDS011;3159;52.414;9.784;2024-01-11T10:13:38;28.87;;;15.27;;
6251;SDS011;3159;52.414;9.784;2024-01-11T10:16:05;24.80;;;14.63;;
6251;SDS011;3159;52.414;9.784;2024-01-11T10:18:33;29.63;;;15.87;;
6251;SDS011;3159;52.414;9.784;2024-01-11T10:21:00;30.93;;;15.10;;
6251;SDS011;3159;52.414;9.784;2024-01-11T10:23:30;29.27;;;14.43;;
6251;SDS011;3159;52.414;9.784;2024-01-11T10:26:00;31.37;;;16.10;;
6251;SDS011;3159;52.414;9.784;2024-01-11T10:28:27;37.57;;;17.83;;
6251;SDS011;3159;52.414;9.784;2024-01-11T10:30:54;31.27;;;15.87;;
6251;SDS011;3159;52.414;9.784;2024-01-11T10:33:21;31.70;;;16.13;;
6251;SDS011;3159;52.414;9.784;2024-01-11T10:35:49;31.17;;;16.77;;
6251;SDS011;3159;52.414;9.784;2024-01-11T10:38:16;34.13;;;16.27;;
6251;SDS011;3159;52.414;9.784;2024-01-11T10:40:44;30.23;;;16.50;;
6251;SDS011;3159;52.414;9.784;2024-01-11T10:43:12;37.73;;;21.27;;
6251;SDS011;3159;52.414;9.784;2024-01-11T10:45:44;30.00;;;16.67;;
6251;SDS011;3159;52.414;9.784;2024-01-11T10:48:14;39.73;;;20.57;;
6251;SDS011;3159;52.414;9.784;2024-01-11T10:50:42;34.23;;;17.83;;
6251;SDS011;3159;52.414;9.784;2024-01-11T10:53:12;33.13;;;16.50;;
6251;SDS011;3159;52.414;9.784;2024-01-11T10:55:53;30.10;;;16.43;;
6251;SDS011;3159;52.414;9.784;2024-01-11T10:58:22;28.43;;;16.03;;
6251;SDS011;3159;52.414;9.784;2024-01-11T11:00:49;29.03;;;14.97;;
6251;SDS011;3159;52.414;9.784;2024-01-11T11:03:19;28.40;;;17.00;;
6251;SDS011;3159;52.414;9.784;2024-01-11T11:05:48;32.30;;;18.63;;
6251;SDS011;3159;52.414;9.784;2024-01-11T11:08:16;28.23;;;15.40;;
6251;SDS011;3159;52.414;9.784;2024-01-11T11:10:44;32.53;;;15.77;;
6251;SDS011;3159;52.414;9.784;2024-01-11T11:13:14;31.00;;;15.23;;
6251;SDS011;3159;52.414;9.784;2024-01-11T11:15:41;29.53;;;15.53;;
6251;SDS011;3159;52.414;9.784;2024-01-11T11:18:11;33.17;;;15.60;;
6251;SDS011;3159;52.414;9.784;2024-01-11T11:20:39;32.33;;;16.63;;
6251;SDS011;3159;52.414;9.784;2024-01-11T11:23:07;29.03;;;14.83;;
6251;SDS011;3159;52.414;9.784;2024-01-11T11:25:35;26.17;;;15.57;;
6251;SDS011;3159;52.414;9.784;2024-01-11T11:28:02;31.60;;;15.43;;
6251;SDS011;3159;52.414;9.784;2024-01-11T11:30:31;27.03;;;14.83;;
6251;SDS011;3159;52.414;9.784;2024-01-11T11:33:03;32.23;;;14.60;;
6251;SDS011;3159;52.414;9.784;2024-01-11T11:35:34;27.50;;;13.63;;
6251;SDS011;3159;52.414;9.784;2024-01-11T11:38:01;28.63;;;16.50;;
6251;SDS011;3159;52.414;9.784;2024-01-11T11:40:32;35.50;;;17.43;;
6251;SDS011;3159;52.414;9.784;2024-01-11T11:43:01;25.30;;;14.37;;
6251;SDS011;3159;52.414;9.784;2024-01-11T11:45:31;23.13;;;13.60;;
6251;SDS011;3159;52.414;9.784;2024-01-11T11:47:58;22.60;;;12.43;;
6251;SDS011;3159;52.414;9.784;2024-01-11T11:50:25;23.17;;;13.50;;
6251;SDS011;3159;52.414;9.784;2024-01-11T11:52:53;35.37;;;16.17;;
6251;SDS011;3159;52.414;9.784;2024-01-11T11:55:22;27.33;;;14.93;;
6251;SDS011;3159;52.414;9.784;2024-01-11T11:57:49;26.00;;;13.63;;
6251;SDS011;3159;52.414;9.784;2024-01-11T12:00:17;25.03;;;13.50;;
6251;SDS011;3159;52.414;9.784;2024-01-11T12:02:46;25.67;;;14.50;;
6251;SDS011;3159;52.414;9.784;2024-01-11T12:05:14;25.97;;;15.20;;
6251;SDS011;3159;52.414;9.784;2024-01-11T12:07:42;26.10;;;14.17;;
6251;SDS011;3159;52.414;9.784;2024-01-11T12:10:09;27.10;;;14.10;;
6251;SDS011;3159;52.414;9.784;2024-01-11T12:12:36;26.00;;;13.30;;
6251;SDS011;3159;52.414;9.784;2024-01-11T12:15:05;28.57;;;14.57;;
6251;SDS011;3159;52.414;9.784;2024-01-11T12:17:32;21.93;;;12.43;;
6251;SDS011;3159;52.414;9.784;2024-01-11T12:20:00;23.30;;;13.43;;
6251;SDS011;3159;52.414;9.784;2024-01-11T12:22:28;19.33;;;12.70;;
6251;SDS011;3159;52.414;9.784;2024-01-11T12:24:55;21.90;;;12.60;;
6251;SDS011;3159;52.414;9.784;2024-01-11T12:27:22;23.93;;;12.03;;
6251;SDS011;3159;52.414;9.784;2024-01-11T12:29:49;20.57;;;11.70;;
6251;SDS011;3159;52.414;9.784;2024-01-11T12:32:16;24.47;;;12.23;;
6251;SDS011;3159;52.414;9.784;2024-01-11T12:34:43;22.70;;;11.83;;
6251;SDS011;3159;52.414;9.784;2024-01-11T12:37:12;28.53;;;13.30;;
6251;SDS011;3159;52.414;9.784;2024-01-11T12:39:39;26.40;;;13.13;;
6251;SDS011;3159;52.414;9.784;2024-01-11T12:42:06;27.23;;;13.97;;
6251;SDS011;3159;52.414;9.784;2024-01-11T12:44:34;29.33;;;13.80;;
6251;SDS011;3159;52.414;9.784;2024-01-11T12:47:02;42.77;;;20.80;;
6251;SDS011;3159;52.414;9.784;2024-01-11T12:49:30;38.00;;;18.10;;
6251;SDS011;3159;52.414;9.784;2024-01-11T12:51:57;31.53;;;17.73;;
6251;SDS011;3159;52.414;9.784;2024-01-11T12:54:25;27.67;;;14.40;;
6251;SDS011;3159;52.414;9.784;2024-01-11T12:56:52;25.80;;;13.50;;
6251;SDS011;3159;52.414;9.784;2024-01-11T12:59:19;23.73;;;14.27;;
6251;SDS011;3159;52.414;9.784;2024-01-11T13:01:51;26.33;;;13.77;;
6251;SDS011;3159;52.414;9.784;2024-01-11T13:04:18;27.00;;;14.30;;
6251;SDS011;3159;52.414;9.784;2024-01-11T13:06:45;28.07;;;14.90;;
6251;SDS011;3159;52.414;9.784;2024-01-11T13:09:12;26.40;;;14.70;;
6251;SDS011;3159;52.414;9.784;2024-01-11T13:11:40;27.70;;;14.23;;
6251;SDS011;3159;52.414;9.784;2024-01-11T13:14:07;27.70;;;15.27;;
6251;SDS011;3159;52.414;9.784;2024-01-11T13:16:39;33.47;;;16.03;;
6251;SDS011;3159;52.414;9.784;2024-01-11T13:19:06;26.40;;;15.00;;
6251;SDS011;3159;52.414;9.784;2024-01-11T13:21:33;36.43;;;18.27;;
6251;SDS011;3159;52.414;9.784;2024-01-11T13:24:00;30.80;;;17.20;;
6251;SDS011;3159;52.414;9.784;2024-01-11T13:26:26;38.27;;;19.10;;
6251;SDS011;3159;52.414;9.784;2024-01-11T13:28:54;45.63;;;23.60;;
6251;SDS011;3159;52.414;9.784;2024-01-11T13:31:22;35.97;;;18.60;;
6251;SDS011;3159;52.414;9.784;2024-01-11T13:33:48;26.40;;;14.60;;
6251;SDS011;3159;52.414;9.784;2024-01-11T13:36:15;30.93;;;15.17;;
6251;SDS011;3159;52.414;9.784;2024-01-11T13:38:42;30.90;;;15.90;;
6251;SDS011;3159;52.414;9.784;2024-01-11T13:41:09;31.13;;;16.83;;
6251;SDS011;3159;52.414;9.784;2024-01-11T13:43:36;31.23;;;15.73;;
6251;SDS011;3159;52.414;9.784;2024-01-11T13:46:04;24.77;;;14.03;;
6251;SDS011;3159;52.414;9.784;2024-01-11T13:48:31;22.70;;;13.07;;
6251;SDS011;3159;52.414;9.784;2024-01-11T13:50:58;24.00;;;13.70;;
6251;SDS011;3159;52.414;9.784;2024-01-11T13:53:24;29.07;;;16.03;;
6251;SDS011;3159;52.414;9.784;2024-01-11T13:55:51;28.13;;;13.93;;
6251;SDS011;3159;52.414;9.784;2024-01-11T13:58:18;25.47;;;13.77;;
6251;SDS011;3159;52.414;9.784;2024-01-11T14:00:45;24.73;;;13.50;;
6251;SDS011;3159;52.414;9.784;2024-01-11T14:03:13;33.27;;;15.20;;
6251;SDS011;3159;52.414;9.784;2024-01-11T14:05:40;26.70;;;14.00;;
6251;SDS011;3159;52.414;9.784;2024-01-11T14:08:07;22.57;;;13.27;;
6251;SDS011;3159;52.414;9.784;2024-01-11T14:10:34;26.53;;;14.67;;
6251;SDS011;3159;52.414;9.784;2024-01-11T14:13:01;22.87;;;12.97;;
6251;SDS011;3159;52.414;9.784;2024-01-11T14:15:29;24.33;;;13.90;;
6251;SDS011;3159;52.414;9.784;2024-01-11T14:17:56;27.90;;;14.50;;
6251;SDS011;3159;52.414;9.784;2024-01-11T14:20:24;25.27;;;15.17;;
6251;SDS011;3159;52.414;9.784;2024-01-11T14:22:50;25.43;;;15.37;;
6251;SDS011;3159;52.414;9.784;2024-01-11T14:25:18;32.70;;;17.03;;
6251;SDS011;3159;52.414;9.784;2024-01-11T14:27:46;26.67;;;16.53;;
6251;SDS011;3159;52.414;9.784;2024-01-11T14:30:14;32.43;;;16.50;;
6251;SDS011;3159;52.414;9.784;2024-01-11T14:32:41;25.77;;;15.60;;
6251;SDS011;3159;52.414;9.784;2024-01-11T14:35:08;29.43;;;16.93;;
6251;SDS011;3159;52.414;9.784;2024-01-11T14:37:37;30.47;;;17.33;;
6251;SDS011;3159;52.414;9.784;2024-01-11T14:40:05;34.57;;;19.33;;
6251;SDS011;3159;52.414;9.784;2024-01-11T14:42:32;28.40;;;16.10;;
6251;SDS011;3159;52.414;9.784;2024-01-11T14:44:59;26.60;;;15.37;;
6251;SDS011;3159;52.414;9.784;2024-01-11T14:47:26;27.93;;;16.03;;
6251;SDS011;3159;52.414;9.784;2024-01-11T14:49:52;26.27;;;14.33;;